Time;durP1;ratioP1;P1;durP2;ratioP2;P2;SDS_P1;SDS_P2;PMS_P1;PMS_P2;Temp;Humidity;BMP_temperature;BMP_pressure;BME280_temperature;BME280_humidity;BME280_pressure;Samples;Min_cycle;Max_cycle;Signal;HPM_P1;HPM_P2
2022/03/22 00:01:01;;;;;;;78.40;36.35;;;4.60;59.30;;;;;;4989979;28;20026;-51
2022/03/22 00:03:28;;;;;;;86.00;36.90;;;4.50;59.70;;;;;;4971772;28;20058;-50
2022/03/22 00:05:55;;;;;;;84.07;37.10;;;4.50;59.60;;;;;;4987443;28;20030;-53
2022/03/22 00:08:21;;;;;;;85.05;39.40;;;4.50;59.70;;;;;;4989178;28;20022;-52
2022/03/22 00:10:47;;;;;;;93.75;39.15;;;4.50;60.00;;;;;;4989633;28;20037;-52
2022/03/22 00:13:13;;;;;;;91.50;40.30;;;4.50;59.90;;;;;;4986341;28;20030;-52
2022/03/22 00:15:39;;;;;;;87.25;41.03;;;4.50;59.80;;;;;;4989348;28;20085;-53
2022/03/22 00:18:05;;;;;;;86.50;40.55;;;4.40;59.80;;;;;;4989512;28;20500;-53
2022/03/22 00:20:31;;;;;;;94.03;42.70;;;4.40;59.50;;;;;;4989326;28;20489;-53
2022/03/22 00:22:59;;;;;;;89.25;40.08;;;4.40;60.00;;;;;;4988794;28;20084;-52
2022/03/22 00:25:26;;;;;;;94.13;37.95;;;4.40;60.10;;;;;;4989291;28;20042;-52
2022/03/22 00:27:52;;;;;;;85.38;37.92;;;4.40;60.20;;;;;;4989624;28;20019;-52
2022/03/22 00:30:32;;;;;;;97.75;38.95;;;4.30;60.30;;;;;;4989241;28;20018;-54
2022/03/22 00:33:03;;;;;;;87.55;37.50;;;4.20;60.30;;;;;;4986954;28;20026;-54
2022/03/22 00:35:33;;;;;;;80.60;36.10;;;4.10;60.30;;;;;;4971661;28;20393;-52
2022/03/22 00:37:59;;;;;;;77.07;33.80;;;4.20;60.60;;;;;;4989494;28;20046;-52
2022/03/22 00:40:27;;;;;;;68.28;35.38;;;4.20;60.00;;;;;;4989693;28;20022;-52
2022/03/22 00:42:53;;;;;;;79.78;34.25;;;4.20;60.40;;;;;;4988717;28;20109;-51
2022/03/22 00:45:22;;;;;;;72.65;33.17;;;4.20;60.70;;;;;;4989437;28;20125;-52
2022/03/22 00:47:50;;;;;;;71.75;32.75;;;4.20;60.20;;;;;;4989243;28;20062;-52
2022/03/22 00:50:17;;;;;;;78.90;34.85;;;4.20;60.60;;;;;;4989370;28;20042;-52
2022/03/22 00:52:43;;;;;;;70.43;34.22;;;4.20;60.80;;;;;;4988938;28;20030;-52
2022/03/22 00:55:11;;;;;;;76.05;33.65;;;4.10;61.10;;;;;;4989319;28;20061;-52
2022/03/22 00:57:39;;;;;;;73.03;34.45;;;4.20;61.20;;;;;;4988962;28;20084;-53
2022/03/22 01:00:09;;;;;;;78.47;34.47;;;4.10;61.20;;;;;;4989010;28;20092;-52
2022/03/22 01:02:40;;;;;;;65.70;32.10;;;4.00;61.50;;;;;;4988523;28;20560;-54
2022/03/22 01:05:11;;;;;;;72.53;32.22;;;4.00;61.80;;;;;;4989064;28;20133;-53
2022/03/22 01:07:38;;;;;;;69.03;32.67;;;4.00;61.60;;;;;;4989090;28;20027;-52
2022/03/22 01:10:07;;;;;;;68.40;30.50;;;4.00;61.80;;;;;;4989102;28;20053;-52
2022/03/22 01:12:34;;;;;;;66.72;32.17;;;3.90;61.60;;;;;;4988183;28;20053;-52
2022/03/22 01:15:00;;;;;;;67.20;30.38;;;3.90;62.30;;;;;;4988830;28;20047;-51
2022/03/22 01:17:26;;;;;;;70.90;34.07;;;4.00;62.10;;;;;;4989089;28;20030;-53
2022/03/22 01:19:51;;;;;;;72.10;32.40;;;3.90;62.30;;;;;;4989166;28;20382;-53
2022/03/22 01:22:17;;;;;;;68.57;32.38;;;4.00;62.30;;;;;;4988527;28;20470;-53
2022/03/22 01:24:44;;;;;;;73.05;32.25;;;4.00;62.50;;;;;;4988315;28;20030;-51
2022/03/22 01:27:10;;;;;;;70.28;32.78;;;4.00;62.70;;;;;;4988786;28;20038;-52
2022/03/22 01:29:37;;;;;;;77.50;32.53;;;3.90;63.20;;;;;;4989047;28;20033;-51
2022/03/22 01:32:04;;;;;;;72.95;33.50;;;3.90;63.60;;;;;;4988119;28;20266;-52
2022/03/22 01:34:30;;;;;;;;;;;3.90;64.20;;;;;;4989083;28;20023;-52
2022/03/22 01:36:55;;;;;;;71.32;32.30;;;3.60;65.20;;;;;;4988828;28;19955;-54
2022/03/22 01:39:21;;;;;;;81.55;35.78;;;3.60;66.90;;;;;;4980348;28;20019;-51
2022/03/22 01:41:47;;;;;;;72.57;33.35;;;3.60;67.20;;;;;;4985181;28;20032;-52
2022/03/22 01:44:12;;;;;;;71.40;33.20;;;3.60;67.60;;;;;;4988518;28;20034;-52
2022/03/22 01:46:39;;;;;;;71.82;33.78;;;3.60;65.30;;;;;;4988814;28;20086;-54
2022/03/22 01:49:06;;;;;;;78.93;36.65;;;3.60;64.50;;;;;;4988437;28;20032;-50
2022/03/22 01:51:32;;;;;;;78.45;36.72;;;3.50;68.30;;;;;;4988664;28;20481;-52
2022/03/22 01:53:59;;;;;;;80.97;35.78;;;3.40;68.90;;;;;;4988406;28;20022;-53
2022/03/22 01:56:25;;;;;;;87.30;39.27;;;3.50;67.80;;;;;;4988427;28;20502;-53
2022/03/22 01:58:51;;;;;;;84.03;38.67;;;3.50;66.80;;;;;;4988416;28;20034;-52
2022/03/22 02:06:53;;;;;;;75.72;35.65;;;3.20;66.80;;;;;;4988939;28;20046;-52
2022/03/22 02:09:18;;;;;;;85.32;36.78;;;3.00;68.60;;;;;;4988144;28;20023;-52
2022/03/22 02:11:44;;;;;;;82.18;35.28;;;2.80;69.10;;;;;;4988510;28;20393;-52
2022/03/22 02:14:10;;;;;;;82.85;38.67;;;2.60;70.10;;;;;;4988311;28;20027;-51
2022/03/22 02:16:36;;;;;;;84.78;39.60;;;2.70;71.50;;;;;;4988282;28;20081;-52
2022/03/22 02:19:01;;;;;;;86.60;40.65;;;2.70;73.30;;;;;;4988675;28;20030;-51
2022/03/22 02:21:31;;;;;;;84.95;38.95;;;2.70;76.20;;;;;;4988314;28;20474;-52
2022/03/22 02:23:57;;;;;;;90.85;39.47;;;2.50;77.90;;;;;;4989916;28;20042;-52
2022/03/22 02:26:24;;;;;;;92.70;39.60;;;2.30;80.00;;;;;;4992105;28;20582;-53
2022/03/22 02:28:53;;;;;;;93.18;39.65;;;2.40;80.20;;;;;;4991855;28;20041;-53
2022/03/22 02:31:28;;;;;;;90.93;41.67;;;2.30;79.00;;;;;;4992136;28;20034;-52
2022/03/22 02:33:55;;;;;;;95.50;41.85;;;2.30;80.00;;;;;;4991775;28;20030;-52
2022/03/22 02:36:21;;;;;;;88.53;41.92;;;2.20;81.30;;;;;;4991782;28;20034;-52
2022/03/22 02:38:47;;;;;;;80.10;40.45;;;2.10;81.40;;;;;;4991710;28;20056;-51
2022/03/22 02:41:18;;;;;;;89.03;40.47;;;2.00;84.80;;;;;;4992094;28;20022;-51
2022/03/22 02:43:45;;;;;;;86.28;40.10;;;1.90;87.30;;;;;;4991644;28;20074;-53
2022/03/22 02:46:12;;;;;;;89.18;40.30;;;1.70;90.70;;;;;;4991619;28;20050;-51
2022/03/22 02:48:37;;;;;;;95.97;42.90;;;1.60;92.40;;;;;;4992088;28;20069;-52
2022/03/22 02:51:04;;;;;;;106.82;44.80;;;1.50;94.90;;;;;;4991969;28;20091;-50
2022/03/22 02:53:29;;;;;;;102.33;45.37;;;1.40;95.70;;;;;;4991494;28;20027;-50
2022/03/22 02:55:55;;;;;;;114.75;47.92;;;1.20;96.20;;;;;;4991012;28;20037;-53
2022/03/22 02:58:21;;;;;;;106.00;48.03;;;1.20;97.40;;;;;;4991388;28;20037;-52
2022/03/22 03:00:47;;;;;;;119.05;49.38;;;1.20;98.60;;;;;;4991812;28;20109;-51
2022/03/22 03:03:12;;;;;;;98.93;47.13;;;1.20;99.30;;;;;;4991056;28;20499;-52
2022/03/22 03:05:38;;;;;;;100.55;43.88;;;1.20;99.90;;;;;;4991479;28;20046;-52
2022/03/22 03:08:04;;;;;;;99.78;43.05;;;1.30;98.80;;;;;;4991342;28;20026;-52
2022/03/22 03:10:30;;;;;;;98.15;42.25;;;1.30;99.10;;;;;;4991512;28;20031;-51
2022/03/22 03:13:00;;;;;;;79.32;38.05;;;1.40;97.80;;;;;;4991058;28;20026;-51
2022/03/22 03:15:26;;;;;;;86.35;37.88;;;1.50;95.60;;;;;;4991215;28;20054;-51
2022/03/22 03:17:51;;;;;;;98.13;39.83;;;1.50;94.60;;;;;;4990935;28;20033;-52
2022/03/22 03:20:17;;;;;;;95.20;41.97;;;1.60;95.10;;;;;;4991679;28;20296;-53
2022/03/22 03:22:42;;;;;;;91.78;41.10;;;1.60;95.80;;;;;;4990823;28;20022;-52
2022/03/22 03:25:08;;;;;;;91.45;41.25;;;1.50;96.80;;;;;;4990921;28;20113;-52
2022/03/22 03:27:35;;;;;;;91.40;40.47;;;1.20;97.80;;;;;;4991214;28;20053;-52
2022/03/22 03:30:04;;;;;;;94.57;41.58;;;1.30;99.60;;;;;;4991062;28;20026;-51
2022/03/22 03:32:30;;;;;;;91.85;41.13;;;1.30;99.90;;;;;;4990662;28;20042;-51
2022/03/22 03:34:56;;;;;;;88.75;39.47;;;1.30;99.90;;;;;;4990268;28;20045;-53
2022/03/22 03:37:24;;;;;;;88.18;41.20;;;1.30;99.90;;;;;;4990641;28;20022;-51
2022/03/22 03:39:51;;;;;;;92.85;42.40;;;1.20;99.90;;;;;;4990887;28;20034;-53
2022/03/22 03:42:16;;;;;;;88.75;42.58;;;1.20;99.90;;;;;;4990792;28;20034;-52
2022/03/22 03:47:26;;;;;;;91.05;40.78;;;1.30;99.70;;;;;;4991084;28;20594;-52
2022/03/22 03:49:59;;;;;;;92.28;42.55;;;1.20;99.40;;;;;;4990870;28;20026;-51
2022/03/22 03:52:28;;;;;;;92.35;43.15;;;1.20;99.90;;;;;;4990626;28;20030;-52
2022/03/22 03:54:54;;;;;;;99.70;44.72;;;1.20;99.90;;;;;;4990469;28;20034;-52
2022/03/22 03:57:21;;;;;;;87.67;41.97;;;1.10;99.90;;;;;;4989644;28;20023;-51
2022/03/22 03:59:47;;;;;;;111.17;46.87;;;1.10;99.90;;;;;;4990482;28;20277;-53
2022/03/22 04:02:13;;;;;;;102.07;47.40;;;1.20;99.50;;;;;;4990567;28;20023;-50
2022/03/22 04:04:41;;;;;;;104.75;45.88;;;1.30;98.30;;;;;;4990362;28;20125;-52
2022/03/22 04:07:09;;;;;;;113.50;47.85;;;1.30;98.10;;;;;;4990003;28;20058;-51
2022/03/22 04:09:37;;;;;;;107.25;48.13;;;1.20;99.40;;;;;;4972750;28;20034;-51
2022/03/22 04:12:03;;;;;;;117.82;53.53;;;1.10;99.90;;;;;;4989883;28;20482;-52
2022/03/22 04:14:29;;;;;;;107.53;48.92;;;1.10;99.90;;;;;;4989864;28;20079;-51
2022/03/22 04:16:57;;;;;;;119.80;50.63;;;1.00;99.90;;;;;;4989898;28;20069;-51
2022/03/22 04:19:24;;;;;;;119.65;51.08;;;1.00;99.90;;;;;;4990349;28;20031;-50
2022/03/22 04:21:50;;;;;;;109.15;46.63;;;0.70;99.90;;;;;;4989948;28;20026;-52
2022/03/22 04:24:15;;;;;;;110.88;45.70;;;0.50;99.90;;;;;;4989729;28;20030;-52
2022/03/22 04:26:43;;;;;;;94.47;44.85;;;0.40;99.90;;;;;;4989199;28;20042;-53
2022/03/22 04:34:39;;;;;;;103.78;48.15;;;0.50;99.90;;;;;;4989866;28;20198;-51
2022/03/22 04:37:05;;;;;;;106.63;46.63;;;0.50;99.90;;;;;;4989323;28;20026;-51
2022/03/22 04:39:31;;;;;;;94.25;43.60;;;0.60;99.90;;;;;;4971876;28;20042;-51
2022/03/22 04:41:58;;;;;;;105.30;46.75;;;0.70;99.90;;;;;;4971810;28;20033;-51
2022/03/22 04:44:26;;;;;;;98.50;46.88;;;0.70;99.90;;;;;;4989652;28;20054;-53
2022/03/22 04:46:52;;;;;;;100.78;44.17;;;0.70;99.90;;;;;;4988501;28;20053;-53
2022/03/22 04:49:18;;;;;;;107.47;45.15;;;0.70;99.90;;;;;;4989485;28;20043;-52
2022/03/22 04:57:12;;;;;;;105.28;44.05;;;0.60;99.90;;;;;;4988731;28;20041;-50
2022/03/22 04:59:38;;;;;;;94.82;43.67;;;0.40;99.90;;;;;;4989177;28;20022;-50
2022/03/22 05:02:04;;;;;;;92.25;44.65;;;0.40;99.90;;;;;;4971695;28;20030;-52
2022/03/22 05:04:30;;;;;;;92.90;43.95;;;0.40;99.90;;;;;;4989116;28;20030;-52
2022/03/22 05:06:55;;;;;;;91.82;43.17;;;0.40;99.90;;;;;;4988778;28;20034;-54
2022/03/22 05:09:22;;;;;;;93.57;43.75;;;0.40;99.90;;;;;;4989339;28;20034;-51
2022/03/22 05:11:48;;;;;;;;;;;0.30;99.90;;;;;;4988803;28;20092;-52
2022/03/22 05:14:14;;;;;;;89.40;42.67;;;0.30;99.90;;;;;;4988834;28;19909;-53
2022/03/22 05:16:40;;;;;;;89.13;43.30;;;0.30;99.90;;;;;;4988704;28;20453;-55
2022/03/22 05:19:05;;;;;;;93.90;45.13;;;0.20;99.90;;;;;;4988922;28;20477;-53
2022/03/22 05:21:32;;;;;;;102.60;44.47;;;0.30;99.90;;;;;;4988710;28;20113;-53
2022/03/22 05:23:58;;;;;;;109.90;50.67;;;0.30;99.90;;;;;;4988805;28;20034;-53
2022/03/22 05:26:26;;;;;;;96.32;43.58;;;0.40;99.90;;;;;;4971270;28;20442;-52
2022/03/22 05:28:54;;;;;;;103.22;44.90;;;0.40;99.90;;;;;;4988948;28;20052;-53
2022/03/22 05:31:21;;;;;;;96.05;42.20;;;0.30;99.90;;;;;;4988243;28;20501;-52
2022/03/22 05:33:48;;;;;;;103.63;45.75;;;0.30;99.90;;;;;;4988288;28;20030;-53
2022/03/22 05:36:14;;;;;;;108.45;47.13;;;0.40;99.90;;;;;;4989214;28;20034;-53
2022/03/22 05:38:40;;;;;;;124.07;55.95;;;0.40;99.90;;;;;;4988657;28;20525;-52
2022/03/22 05:41:08;;;;;;;216.23;91.57;;;0.60;99.90;;;;;;4988861;28;20037;-53
2022/03/22 05:43:35;;;;;;;178.68;76.47;;;0.60;99.90;;;;;;4988350;28;20072;-53
2022/03/22 05:46:02;;;;;;;230.27;95.18;;;0.70;99.90;;;;;;4988576;28;20433;-54
2022/03/22 05:48:27;;;;;;;;;;;0.90;99.90;;;;;;4988957;28;20125;-52
2022/03/22 05:50:53;;;;;;;166.70;73.05;;;1.00;99.90;;;;;;4971053;28;20004;-53
2022/03/22 05:53:19;;;;;;;186.73;74.82;;;1.10;99.90;;;;;;4988433;28;20096;-51
2022/03/22 05:55:45;;;;;;;174.02;73.80;;;1.10;99.90;;;;;;4988889;28;20424;-53
2022/03/22 05:58:11;;;;;;;185.82;75.13;;;1.20;99.90;;;;;;4990727;28;20137;-52
2022/03/22 06:00:37;;;;;;;178.77;73.95;;;1.40;99.90;;;;;;4974889;28;20913;-54
2022/03/22 06:03:02;;;;;;;182.50;76.47;;;1.50;99.90;;;;;;4992180;28;20069;-54
2022/03/22 06:05:29;;;;;;;169.98;73.63;;;1.60;99.90;;;;;;4992590;28;20076;-52
2022/03/22 06:07:56;;;;;;;160.75;70.90;;;1.60;99.90;;;;;;4992176;28;20030;-53
2022/03/22 06:10:21;;;;;;;145.77;66.68;;;1.60;99.90;;;;;;4992334;28;20042;-52
2022/03/22 06:13:05;;;;;;;152.23;66.57;;;1.70;99.90;;;;;;4991838;28;20085;-52
2022/03/22 06:15:32;;;;;;;133.05;60.35;;;1.80;99.90;;;;;;4992408;28;20050;-57
2022/03/22 06:18:00;;;;;;;124.25;56.75;;;1.90;99.90;;;;;;4992392;28;20070;-52
2022/03/22 06:20:32;;;;;;;136.38;56.47;;;2.00;99.90;;;;;;4992189;28;20534;-53
2022/03/22 06:22:59;;;;;;;114.03;52.28;;;2.10;99.90;;;;;;4991626;28;20026;-51
2022/03/22 06:25:25;;;;;;;112.05;52.05;;;2.30;99.90;;;;;;4992116;28;20032;-51
2022/03/22 06:27:52;;;;;;;119.38;50.45;;;2.40;99.90;;;;;;4991859;28;20042;-52
2022/03/22 06:30:19;;;;;;;113.85;50.63;;;2.50;99.90;;;;;;4992054;28;20038;-52
2022/03/22 06:33:17;;;;;;;116.43;50.75;;;2.60;99.90;;;;;;4973623;28;20036;-53
2022/03/22 06:35:45;;;;;;;122.85;51.25;;;2.80;99.90;;;;;;4987338;28;20085;-51
2022/03/22 06:38:11;;;;;;;122.95;53.05;;;2.90;99.90;;;;;;4991586;28;20023;-52
2022/03/22 06:40:40;;;;;;;127.38;53.72;;;3.10;99.90;;;;;;4991534;28;20035;-52
2022/03/22 06:43:10;;;;;;;114.03;51.20;;;3.30;99.90;;;;;;4991320;28;20077;-53
2022/03/22 06:45:37;;;;;;;119.50;52.65;;;3.50;99.90;;;;;;4991823;28;20061;-52
2022/03/22 06:48:06;;;;;;;113.43;54.13;;;3.60;99.90;;;;;;4991598;28;20023;-51
2022/03/22 06:50:33;;;;;;;120.47;56.15;;;3.80;99.90;;;;;;4991471;28;20142;-51
2022/03/22 06:53:01;;;;;;;126.20;56.90;;;4.00;99.90;;;;;;4991045;28;20057;-54
2022/03/22 06:55:26;;;;;;;128.38;57.33;;;4.10;99.90;;;;;;4991572;28;20038;-50
2022/03/22 06:57:52;;;;;;;124.25;55.45;;;4.30;99.90;;;;;;4991241;28;20369;-51
2022/03/22 07:00:20;;;;;;;101.60;48.45;;;4.50;99.90;;;;;;4991472;28;20092;-51
2022/03/22 07:02:46;;;;;;;;;;;4.60;99.00;;;;;;4991033;28;20478;-53
2022/03/22 07:05:12;;;;;;;88.25;41.13;;;5.00;96.10;;;;;;4991019;28;19995;-53
2022/03/22 07:07:39;;;;;;;81.95;41.90;;;5.20;91.80;;;;;;4991273;28;20644;-51
2022/03/22 07:10:07;;;;;;;84.65;41.22;;;5.50;87.50;;;;;;4990284;28;20025;-52
2022/03/22 07:12:33;;;;;;;82.70;39.90;;;5.80;86.10;;;;;;4990604;28;20549;-52
2022/03/22 07:14:59;;;;;;;85.05;39.13;;;5.90;81.30;;;;;;4990640;28;20058;-52
2022/03/22 07:17:24;;;;;;;74.13;38.92;;;6.20;81.70;;;;;;4990925;28;20374;-53
2022/03/22 07:19:51;;;;;;;77.30;37.60;;;6.40;77.90;;;;;;4991241;28;20041;-53
2022/03/22 07:22:17;;;;;;;72.22;36.28;;;6.60;75.20;;;;;;4990678;28;20030;-50
2022/03/22 07:24:43;;;;;;;74.85;38.83;;;6.70;74.10;;;;;;4990329;28;20382;-52
2022/03/22 07:27:08;;;;;;;70.38;39.67;;;6.80;72.50;;;;;;4990802;28;20042;-50
2022/03/22 07:29:34;;;;;;;87.05;40.05;;;7.00;70.80;;;;;;4990812;28;20034;-51
2022/03/22 07:32:00;;;;;;;76.75;39.25;;;7.30;70.30;;;;;;4990433;28;20027;-50
2022/03/22 07:34:27;;;;;;;92.53;39.72;;;7.50;67.70;;;;;;4990309;28;20038;-51
2022/03/22 07:36:53;;;;;;;78.22;38.92;;;7.80;66.40;;;;;;4990677;28;20015;-51
2022/03/22 07:39:21;;;;;;;75.72;40.17;;;7.90;67.00;;;;;;4990774;28;20030;-53
2022/03/22 07:41:47;;;;;;;77.50;40.83;;;8.00;66.40;;;;;;4990455;28;20586;-51
2022/03/22 07:44:13;;;;;;;78.50;41.10;;;8.10;68.20;;;;;;4990031;28;20117;-50
2022/03/22 07:46:42;;;;;;;89.82;43.33;;;8.20;67.10;;;;;;4990106;28;20649;-52
2022/03/22 07:54:39;;;;;;;83.28;42.85;;;8.50;66.20;;;;;;4990118;28;20038;-51
2022/03/22 07:57:07;;;;;;;84.63;41.85;;;8.60;65.50;;;;;;4990193;28;20050;-52
2022/03/22 07:59:32;;;;;;;81.47;39.65;;;8.70;64.80;;;;;;4990096;28;20053;-51
2022/03/22 08:01:58;;;;;;;68.75;36.15;;;8.80;62.80;;;;;;4972433;28;20057;-52
2022/03/22 08:04:24;;;;;;;71.65;35.70;;;9.10;64.40;;;;;;4990111;28;20026;-51
2022/03/22 08:06:49;;;;;;;58.15;30.20;;;9.20;59.90;;;;;;4990048;28;20157;-52
2022/03/22 08:09:15;;;;;;;61.22;30.50;;;9.30;58.70;;;;;;4990425;28;20410;-51
2022/03/22 08:11:41;;;;;;;60.75;29.90;;;9.50;59.10;;;;;;4989618;28;20034;-50
2022/03/22 08:14:08;;;;;;;58.25;30.13;;;9.60;56.60;;;;;;4989784;28;20058;-51
2022/03/22 08:16:36;;;;;;;54.25;29.92;;;9.90;57.10;;;;;;4989334;28;20057;-52
2022/03/22 08:19:04;;;;;;;59.50;30.55;;;10.20;59.20;;;;;;4990116;28;20114;-51
2022/03/22 08:21:30;;;;;;;59.67;33.35;;;10.20;57.70;;;;;;4989650;28;20076;-51
2022/03/22 08:23:55;;;;;;;57.58;30.58;;;10.60;56.60;;;;;;4989200;28;20033;-51
2022/03/22 08:26:21;;;;;;;65.18;31.40;;;10.80;56.70;;;;;;4989569;28;20038;-52
2022/03/22 08:28:47;;;;;;;54.20;30.35;;;11.10;56.80;;;;;;4989488;28;20117;-50
2022/03/22 08:31:13;;;;;;;50.05;27.38;;;11.40;53.50;;;;;;4990031;28;20421;-53
2022/03/22 08:33:39;;;;;;;53.75;27.55;;;11.50;52.90;;;;;;4989263;28;20494;-53
2022/03/22 08:36:04;;;;;;;50.35;26.63;;;11.80;53.70;;;;;;4989438;28;20065;-51
2022/03/22 08:38:30;;;;;;;49.20;27.08;;;12.30;52.40;;;;;;4989301;28;20145;-53
2022/03/22 08:40:57;;;;;;;49.75;25.70;;;12.60;52.20;;;;;;4988125;28;20049;-52
2022/03/22 08:43:25;;;;;;;48.60;26.60;;;12.80;50.10;;;;;;4988955;28;20145;-52
2022/03/22 08:45:54;;;;;;;45.90;24.95;;;13.90;48.30;;;;;;4989467;28;20282;-50
2022/03/22 08:48:20;;;;;;;46.60;26.10;;;13.40;47.80;;;;;;4989507;28;20319;-51
2022/03/22 08:50:49;;;;;;;50.28;27.02;;;14.20;48.70;;;;;;4989393;28;20034;-52
2022/03/22 08:53:16;;;;;;;42.08;24.98;;;14.70;46.50;;;;;;4988789;28;20363;-52
2022/03/22 08:55:44;;;;;;;46.10;23.98;;;15.50;42.30;;;;;;4988874;28;20381;-51
2022/03/22 08:58:10;;;;;;;52.85;24.70;;;15.80;42.10;;;;;;4989419;28;20109;-51
2022/03/22 09:00:37;;;;;;;41.55;21.38;;;16.00;42.30;;;;;;4989125;28;20450;-52
2022/03/22 09:03:04;;;;;;;40.85;24.17;;;15.50;40.20;;;;;;4988766;28;20029;-52
2022/03/22 09:08:15;;;;;;;40.55;22.77;;;16.20;40.30;;;;;;4989107;28;20076;-51
2022/03/22 09:10:41;;;;;;;37.17;20.80;;;16.10;41.50;;;;;;4989448;28;20289;-51
2022/03/22 09:13:07;;;;;;;36.85;18.92;;;16.20;40.00;;;;;;4988716;28;20113;-51
2022/03/22 09:15:39;;;;;;;35.35;19.23;;;16.10;41.10;;;;;;4988432;28;20054;-52
2022/03/22 09:18:13;;;;;;;36.35;21.02;;;16.60;39.60;;;;;;4989027;28;20097;-51
2022/03/22 09:20:38;;;;;;;39.83;21.23;;;16.10;41.10;;;;;;4989154;28;20026;-51
2022/03/22 09:23:04;;;;;;;36.63;23.13;;;16.90;37.90;;;;;;4988510;28;20053;-51
2022/03/22 09:25:30;;;;;;;44.90;23.17;;;16.80;37.90;;;;;;4988656;28;20045;-53
2022/03/22 09:27:56;;;;;;;36.40;22.33;;;17.30;39.00;;;;;;4988406;28;20029;-51
2022/03/22 09:30:23;;;;;;;36.70;19.30;;;16.90;40.70;;;;;;4988810;28;20026;-52
2022/03/22 09:32:50;;;;;;;35.70;20.52;;;16.60;40.10;;;;;;4987614;28;20026;-53
2022/03/22 09:35:19;;;;;;;34.45;19.25;;;16.30;40.80;;;;;;4987874;28;20046;-52
2022/03/22 09:37:46;;;;;;;29.67;19.23;;;16.10;41.30;;;;;;4988639;28;20030;-53
2022/03/22 09:40:13;;;;;;;34.22;19.77;;;16.90;38.70;;;;;;4988334;28;20050;-51
2022/03/22 09:42:42;;;;;;;31.60;17.95;;;16.70;40.10;;;;;;4986648;28;20034;-52
2022/03/22 09:45:09;;;;;;;32.05;17.73;;;17.80;37.90;;;;;;4969220;28;20033;-52
2022/03/22 09:47:36;;;;;;;27.95;15.90;;;17.00;37.90;;;;;;4986873;28;20030;-54
2022/03/22 09:50:13;;;;;;;27.40;16.58;;;17.00;38.70;;;;;;4987383;28;20023;-52
2022/03/22 09:52:40;;;;;;;26.70;15.93;;;18.00;36.60;;;;;;4986698;28;20030;-53
2022/03/22 09:55:07;;;;;;;22.38;14.95;;;17.70;36.90;;;;;;4986871;28;20029;-52
2022/03/22 09:57:34;;;;;;;25.17;15.15;;;17.60;36.50;;;;;;4987027;28;20035;-53
2022/03/22 09:59:59;;;;;;;22.20;14.55;;;18.40;35.90;;;;;;4987224;28;20038;-52
2022/03/22 10:02:34;;;;;;;19.73;12.82;;;17.70;37.80;;;;;;4986833;28;20433;-52
2022/03/22 10:05:00;;;;;;;23.65;14.70;;;18.20;36.00;;;;;;4987978;28;20474;-52
2022/03/22 10:07:28;;;;;;;23.83;15.07;;;18.40;34.00;;;;;;4988281;28;20088;-53
2022/03/22 10:09:56;;;;;;;26.48;16.45;;;18.20;33.80;;;;;;4988544;28;20023;-52
2022/03/22 10:12:40;;;;;;;33.22;16.35;;;17.50;34.40;;;;;;4988037;28;20164;-51
2022/03/22 10:15:16;;;;;;;27.95;16.58;;;17.70;34.80;;;;;;4987901;28;20046;-51
2022/03/22 10:17:43;;;;;;;27.25;15.70;;;17.80;34.10;;;;;;4988676;28;20038;-51
2022/03/22 10:20:21;;;;;;;26.10;16.35;;;17.90;34.50;;;;;;4985505;28;20595;-50
2022/03/22 10:23:01;;;;;;;22.90;14.57;;;18.80;33.20;;;;;;4985311;28;20042;-52
2022/03/22 10:25:30;;;;;;;27.15;15.55;;;18.40;33.60;;;;;;4986298;28;20610;-50
2022/03/22 10:27:58;;;;;;;28.70;15.07;;;18.90;34.90;;;;;;4986989;28;20125;-50
2022/03/22 10:30:24;;;;;;;28.15;16.50;;;18.70;35.90;;;;;;4987383;28;20030;-50
2022/03/22 10:32:53;;;;;;;26.80;15.63;;;19.20;37.80;;;;;;4986565;28;20026;-51
2022/03/22 10:35:28;;;;;;;25.25;17.00;;;19.70;34.40;;;;;;4987804;28;20023;-52
2022/03/22 10:37:57;;;;;;;29.67;17.40;;;20.00;32.40;;;;;;4988234;28;20034;-51
2022/03/22 10:40:26;;;;;;;27.58;17.35;;;19.70;32.20;;;;;;4988501;28;20069;-52
2022/03/22 10:43:00;;;;;;;28.33;16.15;;;19.50;32.40;;;;;;4987396;28;20046;-52
2022/03/22 10:45:28;;;;;;;25.33;14.63;;;19.70;33.80;;;;;;4990067;28;20084;-52
2022/03/22 10:47:54;;;;;;;;;;;20.10;31.40;;;;;;4992096;28;20061;-52
2022/03/22 10:50:20;;;;;;;25.23;15.43;;;19.40;30.30;;;;;;4991849;28;19909;-49
2022/03/22 10:52:55;;;;;;;23.23;13.45;;;19.80;31.50;;;;;;4990844;28;20079;-52
2022/03/22 10:55:27;;;;;;;28.25;16.63;;;20.30;32.20;;;;;;4991212;28;20106;-52
2022/03/22 10:57:56;;;;;;;27.85;17.38;;;20.30;33.00;;;;;;4991457;28;20026;-51
2022/03/22 11:00:23;;;;;;;24.58;15.23;;;21.20;32.20;;;;;;4991653;28;20042;-53
2022/03/22 11:02:52;;;;;;;30.33;17.00;;;20.90;33.10;;;;;;4990842;28;20022;-53
2022/03/22 11:05:19;;;;;;;26.23;14.48;;;21.00;33.70;;;;;;4991330;28;20486;-53
2022/03/22 11:07:47;;;;;;;22.63;14.23;;;21.10;29.70;;;;;;4991273;28;20124;-52
2022/03/22 11:10:14;;;;;;;28.15;14.43;;;20.50;30.50;;;;;;4991884;28;20093;-52
2022/03/22 11:12:40;;;;;;;26.15;14.88;;;20.80;30.20;;;;;;5260350;22;20980;-52
2022/03/22 11:15:07;;;;;;;;;;;19.40;30.00;;;;;;4988641;28;20050;-52
2022/03/22 11:17:34;;;;;;;25.35;14.65;;;19.30;30.30;;;;;;4991188;28;19910;-53
2022/03/22 11:20:04;;;;;;;48.85;17.38;;;19.30;31.60;;;;;;4991284;28;20027;-52
2022/03/22 11:22:31;;;;;;;24.00;15.05;;;18.30;31.40;;;;;;4990729;28;20133;-52
2022/03/22 11:25:08;;;;;;;25.77;15.35;;;18.40;32.90;;;;;;4989917;28;20022;-52
2022/03/22 11:27:34;;;;;;;20.85;12.82;;;19.40;34.30;;;;;;4990651;28;20039;-51
2022/03/22 11:30:00;;;;;;;25.02;14.10;;;19.70;34.00;;;;;;4990858;28;20097;-51
2022/03/22 11:35:14;;;;;;;26.70;15.07;;;20.70;31.90;;;;;;4990616;28;20072;-51
2022/03/22 11:37:40;;;;;;;24.02;14.38;;;21.50;30.70;;;;;;4973018;28;20034;-52
2022/03/22 11:43:01;;;;;;;23.95;15.25;;;21.20;29.40;;;;;;4989954;28;20073;-51
2022/03/22 11:45:27;;;;;;;25.77;14.57;;;21.10;31.10;;;;;;4990382;28;20035;-51
2022/03/22 11:47:53;;;;;;;24.05;14.48;;;20.90;29.70;;;;;;4990059;28;20113;-51
2022/03/22 11:50:22;;;;;;;19.73;12.82;;;20.30;30.50;;;;;;4990110;28;20064;-52
2022/03/22 11:52:54;;;;;;;23.63;12.90;;;20.70;32.90;;;;;;4990104;28;20049;-52
2022/03/22 11:55:22;;;;;;;24.23;13.05;;;20.90;31.30;;;;;;4988590;28;20109;-51
2022/03/22 11:57:56;;;;;;;20.55;13.23;;;20.80;30.90;;;;;;4987370;28;20042;-53
2022/03/22 12:00:22;;;;;;;22.83;11.68;;;20.90;33.20;;;;;;4987524;28;20505;-53
2022/03/22 12:02:54;;;;;;;20.98;10.98;;;20.90;31.70;;;;;;4986828;28;20053;-51
2022/03/22 12:05:22;;;;;;;24.77;12.02;;;20.90;32.10;;;;;;4986906;28;20129;-52
2022/03/22 12:07:49;;;;;;;18.42;11.70;;;21.20;33.10;;;;;;4986933;28;20121;-52
2022/03/22 12:10:17;;;;;;;25.20;11.85;;;21.20;29.70;;;;;;4989066;28;20474;-52
2022/03/22 12:12:50;;;;;;;17.58;9.88;;;21.10;30.40;;;;;;4989237;28;20512;-53
2022/03/22 12:15:19;;;;;;;17.17;10.35;;;21.10;29.20;;;;;;4988994;28;20034;-51
2022/03/22 12:17:45;;;;;;;17.30;10.27;;;20.60;30.20;;;;;;4988423;28;20027;-53
2022/03/22 12:20:14;;;;;;;16.20;9.70;;;20.90;31.70;;;;;;4988901;28;20027;-52
2022/03/22 12:22:42;;;;;;;21.10;10.80;;;21.10;31.10;;;;;;4988225;28;20258;-51
2022/03/22 12:25:17;;;;;;;18.35;11.02;;;21.40;32.50;;;;;;4988469;28;20049;-52
2022/03/22 12:28:09;;;;;;;19.05;11.15;;;21.40;29.60;;;;;;4988617;28;20034;-51
2022/03/22 12:30:43;;;;;;;24.40;13.77;;;21.40;32.00;;;;;;4984071;28;20037;-50
2022/03/22 12:33:14;;;;;;;19.88;12.63;;;21.20;30.90;;;;;;4967678;28;20060;-51
2022/03/22 12:35:42;;;;;;;22.27;13.30;;;20.70;29.70;;;;;;4988341;28;20088;-52
2022/03/22 12:38:08;;;;;;;22.92;13.05;;;20.40;29.70;;;;;;4988307;28;20037;-51
2022/03/22 12:40:35;;;;;;;24.65;14.60;;;20.00;30.00;;;;;;4988328;28;20038;-52
2022/03/22 12:43:02;;;;;;;;;;;20.40;32.10;;;;;;4988120;28;20037;-52
2022/03/22 12:45:31;;;;;;;17.67;10.85;;;20.10;32.10;;;;;;4988112;28;19914;-51
2022/03/22 12:47:57;;;;;;;16.45;9.98;;;20.70;31.70;;;;;;4988140;28;20018;-51
2022/03/22 12:50:24;;;;;;;12.65;7.63;;;20.90;31.30;;;;;;4988279;28;20049;-53
2022/03/22 12:52:50;;;;;;;;;;;20.60;29.70;;;;;;4985652;28;20539;-52
2022/03/22 12:55:18;;;;;;;13.55;7.82;;;20.40;29.00;;;;;;4987922;28;19905;-53
2022/03/22 12:57:48;;;;;;;14.85;8.07;;;20.50;30.50;;;;;;4979647;28;20027;-52
2022/03/22 13:00:39;;;;;;;19.88;11.07;;;20.80;33.30;;;;;;4978659;28;20444;-51
2022/03/22 13:03:09;;;;;;;19.27;11.02;;;21.30;32.10;;;;;;4978852;28;20492;-53
2022/03/22 13:05:44;;;;;;;19.13;10.38;;;21.20;29.50;;;;;;4977879;28;20041;-54
2022/03/22 13:08:24;;;;;;;15.38;10.43;;;20.80;29.80;;;;;;4987150;28;20034;-53